sensor_id;sensor_type;location;lat;lon;timestamp;P1;durP1;ratioP1;P2;durP2;ratioP2
10399;SDS011;10031;51.180;17.168;2023-04-03T00:00:28;2.67;;;1.43;;
10399;SDS011;10031;51.180;17.168;2023-04-03T00:02:54;5.33;;;1.60;;
10399;SDS011;10031;51.180;17.168;2023-04-03T00:05:20;2.67;;;1.50;;
10399;SDS011;10031;51.180;17.168;2023-04-03T00:07:47;4.70;;;2.00;;
10399;SDS011;10031;51.180;17.168;2023-04-03T00:10:14;2.77;;;1.63;;
10399;SDS011;10031;51.180;17.168;2023-04-03T00:12:41;2.90;;;1.53;;
10399;SDS011;10031;51.180;17.168;2023-04-03T00:15:07;4.33;;;1.73;;
10399;SDS011;10031;51.180;17.168;2023-04-03T00:17:34;3.67;;;1.90;;
10399;SDS011;10031;51.180;17.168;2023-04-03T00:20:01;3.33;;;1.77;;
10399;SDS011;10031;51.180;17.168;2023-04-03T00:22:36;6.50;;;2.20;;
10399;SDS011;10031;51.180;17.168;2023-04-03T00:25:02;3.37;;;2.10;;
10399;SDS011;10031;51.180;17.168;2023-04-03T00:27:29;3.23;;;1.70;;
10399;SDS011;10031;51.180;17.168;2023-04-03T00:29:55;1.57;;;1.40;;
10399;SDS011;10031;51.180;17.168;2023-04-03T00:32:21;5.57;;;1.87;;
10399;SDS011;10031;51.180;17.168;2023-04-03T00:34:48;1.23;;;1.13;;
10399;SDS011;10031;51.180;17.168;2023-04-03T00:37:15;4.80;;;1.80;;
10399;SDS011;10031;51.180;17.168;2023-04-03T00:39:41;4.30;;;1.67;;
10399;SDS011;10031;51.180;17.168;2023-04-03T00:42:07;4.10;;;1.57;;
10399;SDS011;10031;51.180;17.168;2023-04-03T00:46:59;3.03;;;2.10;;
10399;SDS011;10031;51.180;17.168;2023-04-03T00:49:27;3.13;;;2.10;;
10399;SDS011;10031;51.180;17.168;2023-04-03T00:51:53;2.47;;;1.30;;
10399;SDS011;10031;51.180;17.168;2023-04-03T00:54:21;4.43;;;1.70;;
10399;SDS011;10031;51.180;17.168;2023-04-03T00:56:47;1.73;;;1.40;;
10399;SDS011;10031;51.180;17.168;2023-04-03T00:59:25;3.83;;;1.97;;
10399;SDS011;10031;51.180;17.168;2023-04-03T01:01:57;1.80;;;1.37;;
10399;SDS011;10031;51.180;17.168;2023-04-03T01:04:35;1.47;;;1.33;;
10399;SDS011;10031;51.180;17.168;2023-04-03T01:07:04;2.83;;;1.27;;
10399;SDS011;10031;51.180;17.168;2023-04-03T01:09:33;3.93;;;2.37;;
10399;SDS011;10031;51.180;17.168;2023-04-03T01:12:14;5.37;;;1.97;;
10399;SDS011;10031;51.180;17.168;2023-04-03T01:14:51;3.80;;;1.63;;
10399;SDS011;10031;51.180;17.168;2023-04-03T01:25:47;3.07;;;1.50;;
10399;SDS011;10031;51.180;17.168;2023-04-03T01:28:20;3.40;;;1.67;;
10399;SDS011;10031;51.180;17.168;2023-04-03T01:31:02;1.57;;;1.33;;
10399;SDS011;10031;51.180;17.168;2023-04-03T01:33:33;2.90;;;1.83;;
10399;SDS011;10031;51.180;17.168;2023-04-03T01:36:00;1.57;;;1.47;;
10399;SDS011;10031;51.180;17.168;2023-04-03T01:40:59;4.80;;;2.07;;
10399;SDS011;10031;51.180;17.168;2023-04-03T01:43:25;4.10;;;1.70;;
10399;SDS011;10031;51.180;17.168;2023-04-03T01:45:51;2.53;;;1.30;;
10399;SDS011;10031;51.180;17.168;2023-04-03T01:48:19;0.93;;;0.87;;
10399;SDS011;10031;51.180;17.168;2023-04-03T01:50:48;7.83;;;2.50;;
10399;SDS011;10031;51.180;17.168;2023-04-03T01:53:14;3.90;;;2.30;;
10399;SDS011;10031;51.180;17.168;2023-04-03T01:55:41;7.97;;;2.23;;
10399;SDS011;10031;51.180;17.168;2023-04-03T01:58:07;5.20;;;1.80;;
10399;SDS011;10031;51.180;17.168;2023-04-03T02:00:32;2.37;;;1.30;;
10399;SDS011;10031;51.180;17.168;2023-04-03T02:02:58;5.27;;;1.70;;
10399;SDS011;10031;51.180;17.168;2023-04-03T02:05:25;1.83;;;1.40;;
10399;SDS011;10031;51.180;17.168;2023-04-03T02:07:51;3.07;;;1.90;;
10399;SDS011;10031;51.180;17.168;2023-04-03T02:10:16;3.90;;;1.37;;
10399;SDS011;10031;51.180;17.168;2023-04-03T02:12:42;9.17;;;2.37;;
10399;SDS011;10031;51.180;17.168;2023-04-03T02:15:10;1.77;;;1.30;;
10399;SDS011;10031;51.180;17.168;2023-04-03T02:17:36;3.03;;;1.90;;
10399;SDS011;10031;51.180;17.168;2023-04-03T02:20:03;5.63;;;2.00;;
10399;SDS011;10031;51.180;17.168;2023-04-03T02:22:32;4.73;;;1.40;;
10399;SDS011;10031;51.180;17.168;2023-04-03T02:24:58;8.87;;;1.97;;
10399;SDS011;10031;51.180;17.168;2023-04-03T02:27:25;1.80;;;1.47;;
10399;SDS011;10031;51.180;17.168;2023-04-03T02:29:51;4.73;;;2.23;;
10399;SDS011;10031;51.180;17.168;2023-04-03T02:32:17;6.40;;;1.57;;
10399;SDS011;10031;51.180;17.168;2023-04-03T02:34:44;3.03;;;1.73;;
10399;SDS011;10031;51.180;17.168;2023-04-03T02:37:10;4.20;;;1.93;;
10399;SDS011;10031;51.180;17.168;2023-04-03T02:39:36;3.40;;;1.80;;
10399;SDS011;10031;51.180;17.168;2023-04-03T02:42:03;4.90;;;2.20;;
10399;SDS011;10031;51.180;17.168;2023-04-03T02:44:29;3.63;;;1.77;;
10399;SDS011;10031;51.180;17.168;2023-04-03T02:46:55;11.20;;;3.33;;
10399;SDS011;10031;51.180;17.168;2023-04-03T02:49:21;4.50;;;2.00;;
10399;SDS011;10031;51.180;17.168;2023-04-03T02:51:47;3.23;;;1.90;;
10399;SDS011;10031;51.180;17.168;2023-04-03T02:54:13;2.70;;;1.97;;
10399;SDS011;10031;51.180;17.168;2023-04-03T02:56:39;3.90;;;2.00;;
10399;SDS011;10031;51.180;17.168;2023-04-03T02:59:06;3.30;;;2.20;;
10399;SDS011;10031;51.180;17.168;2023-04-03T03:01:32;3.23;;;1.83;;
10399;SDS011;10031;51.180;17.168;2023-04-03T03:03:59;4.50;;;2.57;;
10399;SDS011;10031;51.180;17.168;2023-04-03T03:06:27;3.83;;;2.17;;
10399;SDS011;10031;51.180;17.168;2023-04-03T03:08:53;5.27;;;2.23;;
10399;SDS011;10031;51.180;17.168;2023-04-03T03:11:20;1.27;;;1.17;;
10399;SDS011;10031;51.180;17.168;2023-04-03T03:13:46;1.60;;;1.47;;
10399;SDS011;10031;51.180;17.168;2023-04-03T03:16:12;4.13;;;2.30;;
10399;SDS011;10031;51.180;17.168;2023-04-03T03:18:38;4.60;;;1.97;;
10399;SDS011;10031;51.180;17.168;2023-04-03T03:21:04;6.03;;;2.40;;
10399;SDS011;10031;51.180;17.168;2023-04-03T03:23:31;3.57;;;1.33;;
10399;SDS011;10031;51.180;17.168;2023-04-03T03:26:02;3.17;;;1.93;;
10399;SDS011;10031;51.180;17.168;2023-04-03T03:28:30;10.50;;;2.10;;
10399;SDS011;10031;51.180;17.168;2023-04-03T03:30:59;6.63;;;2.93;;
10399;SDS011;10031;51.180;17.168;2023-04-03T03:33:26;4.67;;;2.37;;
10399;SDS011;10031;51.180;17.168;2023-04-03T03:35:52;5.67;;;2.40;;
10399;SDS011;10031;51.180;17.168;2023-04-03T03:38:18;1.57;;;1.20;;
10399;SDS011;10031;51.180;17.168;2023-04-03T03:40:46;5.20;;;2.57;;
10399;SDS011;10031;51.180;17.168;2023-04-03T03:43:13;6.73;;;2.30;;
10399;SDS011;10031;51.180;17.168;2023-04-03T03:45:39;5.67;;;2.03;;
10399;SDS011;10031;51.180;17.168;2023-04-03T03:48:07;3.33;;;2.40;;
10399;SDS011;10031;51.180;17.168;2023-04-03T03:50:33;6.10;;;2.27;;
10399;SDS011;10031;51.180;17.168;2023-04-03T03:52:59;8.03;;;2.13;;
10399;SDS011;10031;51.180;17.168;2023-04-03T03:55:32;5.23;;;2.30;;
10399;SDS011;10031;51.180;17.168;2023-04-03T03:57:57;3.30;;;2.27;;
10399;SDS011;10031;51.180;17.168;2023-04-03T04:00:25;4.77;;;2.50;;
10399;SDS011;10031;51.180;17.168;2023-04-03T04:02:51;5.23;;;2.93;;
10399;SDS011;10031;51.180;17.168;2023-04-03T04:05:16;2.87;;;2.00;;
10399;SDS011;10031;51.180;17.168;2023-04-03T04:07:43;4.73;;;2.30;;
10399;SDS011;10031;51.180;17.168;2023-04-03T04:10:09;3.03;;;1.80;;
10399;SDS011;10031;51.180;17.168;2023-04-03T04:12:35;5.57;;;2.23;;
10399;SDS011;10031;51.180;17.168;2023-04-03T04:15:01;2.73;;;1.60;;
10399;SDS011;10031;51.180;17.168;2023-04-03T04:17:27;7.23;;;3.00;;
10399;SDS011;10031;51.180;17.168;2023-04-03T04:19:57;7.43;;;2.67;;
10399;SDS011;10031;51.180;17.168;2023-04-03T04:22:22;4.57;;;2.47;;
10399;SDS011;10031;51.180;17.168;2023-04-03T04:24:50;1.80;;;1.70;;
10399;SDS011;10031;51.180;17.168;2023-04-03T04:27:19;4.97;;;2.57;;
10399;SDS011;10031;51.180;17.168;2023-04-03T04:29:45;3.27;;;1.90;;
10399;SDS011;10031;51.180;17.168;2023-04-03T04:32:11;4.57;;;2.07;;
10399;SDS011;10031;51.180;17.168;2023-04-03T04:34:43;4.43;;;2.37;;
10399;SDS011;10031;51.180;17.168;2023-04-03T04:37:09;8.77;;;2.60;;
10399;SDS011;10031;51.180;17.168;2023-04-03T04:39:36;13.10;;;3.10;;
10399;SDS011;10031;51.180;17.168;2023-04-03T04:42:02;2.93;;;1.17;;
10399;SDS011;10031;51.180;17.168;2023-04-03T04:44:28;3.40;;;2.13;;
10399;SDS011;10031;51.180;17.168;2023-04-03T04:46:53;4.53;;;2.40;;
10399;SDS011;10031;51.180;17.168;2023-04-03T04:49:20;5.53;;;2.60;;
10399;SDS011;10031;51.180;17.168;2023-04-03T04:51:46;3.87;;;1.77;;
10399;SDS011;10031;51.180;17.168;2023-04-03T04:54:12;7.53;;;1.93;;
10399;SDS011;10031;51.180;17.168;2023-04-03T04:56:38;4.53;;;2.47;;
10399;SDS011;10031;51.180;17.168;2023-04-03T04:59:04;5.27;;;2.20;;
10399;SDS011;10031;51.180;17.168;2023-04-03T05:01:31;3.33;;;1.97;;
10399;SDS011;10031;51.180;17.168;2023-04-03T05:03:59;5.70;;;1.43;;
10399;SDS011;10031;51.180;17.168;2023-04-03T05:06:26;6.10;;;1.93;;
10399;SDS011;10031;51.180;17.168;2023-04-03T05:08:52;2.53;;;2.00;;
10399;SDS011;10031;51.180;17.168;2023-04-03T05:11:18;4.93;;;2.10;;
10399;SDS011;10031;51.180;17.168;2023-04-03T05:13:48;2.23;;;1.37;;
10399;SDS011;10031;51.180;17.168;2023-04-03T05:16:18;4.50;;;2.30;;
10399;SDS011;10031;51.180;17.168;2023-04-03T05:18:44;7.30;;;2.37;;
10399;SDS011;10031;51.180;17.168;2023-04-03T05:21:10;3.13;;;1.87;;
10399;SDS011;10031;51.180;17.168;2023-04-03T05:23:43;4.63;;;1.80;;
10399;SDS011;10031;51.180;17.168;2023-04-03T05:26:09;3.90;;;2.07;;
10399;SDS011;10031;51.180;17.168;2023-04-03T05:28:36;3.30;;;1.73;;
10399;SDS011;10031;51.180;17.168;2023-04-03T05:31:01;3.70;;;1.40;;
10399;SDS011;10031;51.180;17.168;2023-04-03T05:33:27;1.30;;;1.20;;
10399;SDS011;10031;51.180;17.168;2023-04-03T05:35:53;2.90;;;1.63;;
10399;SDS011;10031;51.180;17.168;2023-04-03T05:38:23;5.67;;;2.10;;
10399;SDS011;10031;51.180;17.168;2023-04-03T05:40:49;6.83;;;2.07;;
10399;SDS011;10031;51.180;17.168;2023-04-03T05:43:15;4.30;;;2.23;;
10399;SDS011;10031;51.180;17.168;2023-04-03T05:45:44;2.53;;;1.83;;
10399;SDS011;10031;51.180;17.168;2023-04-03T05:48:12;1.30;;;1.10;;
10399;SDS011;10031;51.180;17.168;2023-04-03T05:50:39;6.43;;;2.87;;
10399;SDS011;10031;51.180;17.168;2023-04-03T05:53:09;1.67;;;1.43;;
10399;SDS011;10031;51.180;17.168;2023-04-03T05:55:41;4.20;;;1.50;;
10399;SDS011;10031;51.180;17.168;2023-04-03T05:58:07;4.87;;;2.10;;
10399;SDS011;10031;51.180;17.168;2023-04-03T06:00:34;2.93;;;1.47;;
10399;SDS011;10031;51.180;17.168;2023-04-03T06:03:00;6.67;;;2.60;;
10399;SDS011;10031;51.180;17.168;2023-04-03T06:05:26;4.30;;;2.13;;
10399;SDS011;10031;51.180;17.168;2023-04-03T06:07:52;3.67;;;1.63;;
10399;SDS011;10031;51.180;17.168;2023-04-03T06:10:22;3.23;;;1.83;;
10399;SDS011;10031;51.180;17.168;2023-04-03T06:19:04;6.53;;;2.60;;
10399;SDS011;10031;51.180;17.168;2023-04-03T06:21:42;4.57;;;1.93;;
10399;SDS011;10031;51.180;17.168;2023-04-03T06:30:35;4.93;;;2.50;;
10399;SDS011;10031;51.180;17.168;2023-04-03T06:33:02;3.73;;;1.70;;
10399;SDS011;10031;51.180;17.168;2023-04-03T06:35:31;4.63;;;3.00;;
10399;SDS011;10031;51.180;17.168;2023-04-03T06:41:21;3.73;;;1.93;;
10399;SDS011;10031;51.180;17.168;2023-04-03T06:46:54;4.37;;;2.30;;
10399;SDS011;10031;51.180;17.168;2023-04-03T06:49:21;5.77;;;2.90;;
10399;SDS011;10031;51.180;17.168;2023-04-03T06:51:50;5.30;;;2.50;;
10399;SDS011;10031;51.180;17.168;2023-04-03T06:54:19;4.10;;;2.13;;
10399;SDS011;10031;51.180;17.168;2023-04-03T06:56:45;4.00;;;1.87;;
10399;SDS011;10031;51.180;17.168;2023-04-03T06:59:11;5.30;;;2.87;;
10399;SDS011;10031;51.180;17.168;2023-04-03T07:01:42;3.07;;;1.87;;
10399;SDS011;10031;51.180;17.168;2023-04-03T07:04:08;3.57;;;2.03;;
10399;SDS011;10031;51.180;17.168;2023-04-03T07:06:34;6.00;;;2.80;;
10399;SDS011;10031;51.180;17.168;2023-04-03T07:09:01;3.47;;;2.30;;
10399;SDS011;10031;51.180;17.168;2023-04-03T07:11:28;2.87;;;1.73;;
10399;SDS011;10031;51.180;17.168;2023-04-03T07:13:53;3.53;;;2.10;;
10399;SDS011;10031;51.180;17.168;2023-04-03T07:16:26;4.77;;;2.30;;
10399;SDS011;10031;51.180;17.168;2023-04-03T07:42:12;3.60;;;2.10;;
10399;SDS011;10031;51.180;17.168;2023-04-03T08:11:31;3.63;;;1.97;;
10399;SDS011;10031;51.180;17.168;2023-04-03T08:13:58;3.00;;;2.30;;
10399;SDS011;10031;51.180;17.168;2023-04-03T08:16:24;2.40;;;1.50;;
10399;SDS011;10031;51.180;17.168;2023-04-03T08:18:54;3.03;;;1.83;;
10399;SDS011;10031;51.180;17.168;2023-04-03T08:21:20;1.87;;;1.70;;
10399;SDS011;10031;51.180;17.168;2023-04-03T08:23:47;4.43;;;2.10;;
10399;SDS011;10031;51.180;17.168;2023-04-03T08:26:19;2.80;;;1.90;;
10399;SDS011;10031;51.180;17.168;2023-04-03T08:28:46;3.37;;;1.67;;
10399;SDS011;10031;51.180;17.168;2023-04-03T08:31:17;4.57;;;2.10;;
10399;SDS011;10031;51.180;17.168;2023-04-03T08:33:45;2.60;;;1.80;;
10399;SDS011;10031;51.180;17.168;2023-04-03T08:36:19;3.53;;;1.83;;
10399;SDS011;10031;51.180;17.168;2023-04-03T08:38:47;4.60;;;2.27;;
10399;SDS011;10031;51.180;17.168;2023-04-03T08:44:22;3.43;;;1.77;;
10399;SDS011;10031;51.180;17.168;2023-04-03T08:47:11;3.10;;;2.20;;
10399;SDS011;10031;51.180;17.168;2023-04-03T08:49:49;1.77;;;1.60;;
10399;SDS011;10031;51.180;17.168;2023-04-03T08:52:31;2.50;;;1.60;;
10399;SDS011;10031;51.180;17.168;2023-04-03T08:55:31;2.40;;;1.50;;
10399;SDS011;10031;51.180;17.168;2023-04-03T09:00:57;3.80;;;1.63;;
10399;SDS011;10031;51.180;17.168;2023-04-03T09:03:28;1.47;;;1.30;;
10399;SDS011;10031;51.180;17.168;2023-04-03T09:09:11;2.17;;;1.40;;
10399;SDS011;10031;51.180;17.168;2023-04-03T09:20:31;1.03;;;1.00;;
10399;SDS011;10031;51.180;17.168;2023-04-03T09:26:33;2.27;;;1.40;;
10399;SDS011;10031;51.180;17.168;2023-04-03T09:55:42;2.60;;;1.60;;
10399;SDS011;10031;51.180;17.168;2023-04-03T10:41:43;1.53;;;1.10;;
10399;SDS011;10031;51.180;17.168;2023-04-03T10:46:40;1.23;;;1.00;;
10399;SDS011;10031;51.180;17.168;2023-04-03T10:59:20;1.00;;;1.00;;
10399;SDS011;10031;51.180;17.168;2023-04-03T11:07:47;3.37;;;1.87;;
10399;SDS011;10031;51.180;17.168;2023-04-03T11:29:03;1.30;;;1.13;;
10399;SDS011;10031;51.180;17.168;2023-04-03T11:37:38;1.90;;;1.47;;
10399;SDS011;10031;51.180;17.168;2023-04-03T11:42:49;1.50;;;1.20;;
10399;SDS011;10031;51.180;17.168;2023-04-03T11:51:37;2.63;;;1.57;;
10399;SDS011;10031;51.180;17.168;2023-04-03T12:11:30;1.83;;;1.40;;
10399;SDS011;10031;51.180;17.168;2023-04-03T12:14:04;2.50;;;1.50;;
10399;SDS011;10031;51.180;17.168;2023-04-03T12:19:27;1.40;;;1.30;;
10399;SDS011;10031;51.180;17.168;2023-04-03T12:24:27;1.50;;;1.40;;
10399;SDS011;10031;51.180;17.168;2023-04-03T12:47:00;2.00;;;1.73;;
10399;SDS011;10031;51.180;17.168;2023-04-03T12:52:29;1.67;;;1.50;;
10399;SDS011;10031;51.180;17.168;2023-04-03T12:55:16;3.33;;;1.80;;
10399;SDS011;10031;51.180;17.168;2023-04-03T12:57:49;1.97;;;1.27;;
10399;SDS011;10031;51.180;17.168;2023-04-03T13:00:20;2.77;;;1.90;;
10399;SDS011;10031;51.180;17.168;2023-04-03T13:02:58;2.80;;;2.10;;
10399;SDS011;10031;51.180;17.168;2023-04-03T13:05:27;5.33;;;2.90;;
10399;SDS011;10031;51.180;17.168;2023-04-03T13:07:59;2.50;;;1.83;;
10399;SDS011;10031;51.180;17.168;2023-04-03T13:10:29;2.33;;;1.70;;
10399;SDS011;10031;51.180;17.168;2023-04-03T13:12:58;2.77;;;2.03;;
10399;SDS011;10031;51.180;17.168;2023-04-03T13:15:44;4.23;;;1.90;;
10399;SDS011;10031;51.180;17.168;2023-04-03T13:18:24;3.60;;;1.90;;
10399;SDS011;10031;51.180;17.168;2023-04-03T13:20:51;2.97;;;1.90;;
10399;SDS011;10031;51.180;17.168;2023-04-03T13:23:22;2.80;;;1.97;;
10399;SDS011;10031;51.180;17.168;2023-04-03T13:25:49;3.60;;;2.17;;
10399;SDS011;10031;51.180;17.168;2023-04-03T13:28:18;2.30;;;2.10;;
10399;SDS011;10031;51.180;17.168;2023-04-03T13:31:22;2.00;;;1.50;;
10399;SDS011;10031;51.180;17.168;2023-04-03T13:36:50;1.83;;;1.70;;
10399;SDS011;10031;51.180;17.168;2023-04-03T13:39:30;3.60;;;2.00;;
10399;SDS011;10031;51.180;17.168;2023-04-03T13:41:59;4.30;;;2.10;;
10399;SDS011;10031;51.180;17.168;2023-04-03T13:48:07;3.47;;;1.90;;
10399;SDS011;10031;51.180;17.168;2023-04-03T13:50:53;2.40;;;1.83;;
10399;SDS011;10031;51.180;17.168;2023-04-03T13:53:23;1.47;;;1.30;;
10399;SDS011;10031;51.180;17.168;2023-04-03T13:56:04;1.77;;;1.47;;
10399;SDS011;10031;51.180;17.168;2023-04-03T13:58:33;3.30;;;1.83;;
10399;SDS011;10031;51.180;17.168;2023-04-03T14:01:11;1.70;;;1.60;;
10399;SDS011;10031;51.180;17.168;2023-04-03T14:03:44;2.27;;;1.63;;
10399;SDS011;10031;51.180;17.168;2023-04-03T14:06:15;2.53;;;1.70;;
10399;SDS011;10031;51.180;17.168;2023-04-03T14:11:40;2.60;;;2.07;;
10399;SDS011;10031;51.180;17.168;2023-04-03T14:14:49;2.27;;;1.27;;
10399;SDS011;10031;51.180;17.168;2023-04-03T14:17:00;1.73;;;1.47;;
10399;SDS011;10031;51.180;17.168;2023-04-03T14:19:30;1.33;;;1.20;;
10399;SDS011;10031;51.180;17.168;2023-04-03T14:22:00;2.93;;;2.03;;
10399;SDS011;10031;51.180;17.168;2023-04-03T14:24:36;3.30;;;2.07;;
10399;SDS011;10031;51.180;17.168;2023-04-03T14:27:05;4.33;;;1.47;;
10399;SDS011;10031;51.180;17.168;2023-04-03T14:29:37;2.43;;;1.60;;
10399;SDS011;10031;51.180;17.168;2023-04-03T14:32:03;2.40;;;1.90;;
10399;SDS011;10031;51.180;17.168;2023-04-03T14:34:30;2.00;;;1.53;;
10399;SDS011;10031;51.180;17.168;2023-04-03T14:36:57;2.70;;;1.50;;
10399;SDS011;10031;51.180;17.168;2023-04-03T14:39:23;2.53;;;1.87;;
10399;SDS011;10031;51.180;17.168;2023-04-03T14:41:50;2.53;;;1.90;;
10399;SDS011;10031;51.180;17.168;2023-04-03T14:44:16;1.40;;;1.10;;
10399;SDS011;10031;51.180;17.168;2023-04-03T14:46:43;2.93;;;1.87;;
10399;SDS011;10031;51.180;17.168;2023-04-03T14:49:12;3.50;;;2.47;;
10399;SDS011;10031;51.180;17.168;2023-04-03T14:51:43;2.20;;;1.50;;
10399;SDS011;10031;51.180;17.168;2023-04-03T14:54:12;2.17;;;1.57;;
10399;SDS011;10031;51.180;17.168;2023-04-03T14:56:39;1.90;;;1.50;;
10399;SDS011;10031;51.180;17.168;2023-04-03T14:59:08;9.80;;;2.03;;
10399;SDS011;10031;51.180;17.168;2023-04-03T15:01:35;1.80;;;1.70;;
10399;SDS011;10031;51.180;17.168;2023-04-03T15:04:01;3.30;;;2.17;;
10399;SDS011;10031;51.180;17.168;2023-04-03T15:06:27;3.37;;;2.30;;
10399;SDS011;10031;51.180;17.168;2023-04-03T15:08:53;3.10;;;2.27;;
10399;SDS011;10031;51.180;17.168;2023-04-03T15:11:21;2.87;;;1.70;;
10399;SDS011;10031;51.180;17.168;2023-04-03T15:13:46;1.70;;;1.60;;
10399;SDS011;10031;51.180;17.168;2023-04-03T15:16:14;0.97;;;0.90;;
10399;SDS011;10031;51.180;17.168;2023-04-03T15:18:42;1.83;;;1.73;;
10399;SDS011;10031;51.180;17.168;2023-04-03T15:21:08;2.07;;;1.87;;
10399;SDS011;10031;51.180;17.168;2023-04-03T15:23:34;5.00;;;2.70;;
10399;SDS011;10031;51.180;17.168;2023-04-03T15:26:00;4.50;;;2.77;;
10399;SDS011;10031;51.180;17.168;2023-04-03T15:28:31;1.47;;;1.37;;
10399;SDS011;10031;51.180;17.168;2023-04-03T15:31:00;3.97;;;2.93;;
10399;SDS011;10031;51.180;17.168;2023-04-03T15:33:27;2.80;;;2.10;;
10399;SDS011;10031;51.180;17.168;2023-04-03T15:35:53;4.70;;;2.53;;
10399;SDS011;10031;51.180;17.168;2023-04-03T15:38:19;3.03;;;2.47;;
10399;SDS011;10031;51.180;17.168;2023-04-03T15:40:46;2.00;;;1.70;;
10399;SDS011;10031;51.180;17.168;2023-04-03T15:43:15;2.20;;;1.80;;
10399;SDS011;10031;51.180;17.168;2023-04-03T15:45:41;3.13;;;2.00;;
10399;SDS011;10031;51.180;17.168;2023-04-03T15:48:09;2.63;;;1.40;;
10399;SDS011;10031;51.180;17.168;2023-04-03T15:50:36;4.63;;;2.40;;
10399;SDS011;10031;51.180;17.168;2023-04-03T15:53:02;2.83;;;2.13;;
10399;SDS011;10031;51.180;17.168;2023-04-03T15:55:30;2.33;;;1.87;;
10399;SDS011;10031;51.180;17.168;2023-04-03T15:57:57;2.20;;;1.60;;
10399;SDS011;10031;51.180;17.168;2023-04-03T16:00:24;1.60;;;1.50;;
10399;SDS011;10031;51.180;17.168;2023-04-03T16:02:52;3.60;;;2.63;;
10399;SDS011;10031;51.180;17.168;2023-04-03T16:05:22;2.57;;;1.60;;
10399;SDS011;10031;51.180;17.168;2023-04-03T16:07:50;3.77;;;2.40;;
10399;SDS011;10031;51.180;17.168;2023-04-03T16:10:17;3.40;;;2.10;;
10399;SDS011;10031;51.180;17.168;2023-04-03T16:12:46;5.70;;;2.73;;
10399;SDS011;10031;51.180;17.168;2023-04-03T16:34:32;2.87;;;2.37;;
10399;SDS011;10031;51.180;17.168;2023-04-03T16:40:20;2.50;;;2.07;;
10399;SDS011;10031;51.180;17.168;2023-04-03T16:42:46;3.70;;;2.30;;
10399;SDS011;10031;51.180;17.168;2023-04-03T16:45:13;4.40;;;1.97;;
10399;SDS011;10031;51.180;17.168;2023-04-03T16:51:07;3.03;;;2.30;;
10399;SDS011;10031;51.180;17.168;2023-04-03T16:53:34;4.53;;;2.50;;
10399;SDS011;10031;51.180;17.168;2023-04-03T16:56:00;5.33;;;2.97;;
10399;SDS011;10031;51.180;17.168;2023-04-03T16:58:27;5.50;;;2.90;;
10399;SDS011;10031;51.180;17.168;2023-04-03T17:00:53;7.37;;;3.27;;
10399;SDS011;10031;51.180;17.168;2023-04-03T17:03:23;6.77;;;3.70;;
10399;SDS011;10031;51.180;17.168;2023-04-03T17:05:50;3.67;;;2.30;;
10399;SDS011;10031;51.180;17.168;2023-04-03T17:11:04;8.93;;;5.13;;
10399;SDS011;10031;51.180;17.168;2023-04-03T17:13:30;7.60;;;3.67;;
10399;SDS011;10031;51.180;17.168;2023-04-03T17:15:57;4.83;;;3.23;;
10399;SDS011;10031;51.180;17.168;2023-04-03T17:18:23;5.77;;;3.43;;
10399;SDS011;10031;51.180;17.168;2023-04-03T17:20:49;7.03;;;3.93;;
10399;SDS011;10031;51.180;17.168;2023-04-03T17:23:15;6.83;;;3.07;;
10399;SDS011;10031;51.180;17.168;2023-04-03T17:25:41;5.33;;;2.90;;
10399;SDS011;10031;51.180;17.168;2023-04-03T17:28:07;4.17;;;3.30;;
10399;SDS011;10031;51.180;17.168;2023-04-03T17:30:33;4.43;;;2.93;;
10399;SDS011;10031;51.180;17.168;2023-04-03T17:32:59;6.07;;;3.17;;
10399;SDS011;10031;51.180;17.168;2023-04-03T17:35:25;2.93;;;2.37;;
10399;SDS011;10031;51.180;17.168;2023-04-03T17:37:51;5.10;;;2.97;;
10399;SDS011;10031;51.180;17.168;2023-04-03T17:40:17;3.57;;;2.57;;
10399;SDS011;10031;51.180;17.168;2023-04-03T17:42:44;4.87;;;2.50;;
10399;SDS011;10031;51.180;17.168;2023-04-03T17:45:16;3.33;;;2.47;;
10399;SDS011;10031;51.180;17.168;2023-04-03T17:47:50;6.03;;;3.20;;
10399;SDS011;10031;51.180;17.168;2023-04-03T17:50:17;5.87;;;2.93;;
10399;SDS011;10031;51.180;17.168;2023-04-03T17:52:43;4.50;;;2.90;;
10399;SDS011;10031;51.180;17.168;2023-04-03T17:55:10;5.10;;;3.20;;
10399;SDS011;10031;51.180;17.168;2023-04-03T17:57:41;4.67;;;2.33;;
10399;SDS011;10031;51.180;17.168;2023-04-03T18:00:08;6.07;;;3.33;;
10399;SDS011;10031;51.180;17.168;2023-04-03T18:02:35;5.07;;;3.00;;
10399;SDS011;10031;51.180;17.168;2023-04-03T18:05:01;6.87;;;3.37;;
10399;SDS011;10031;51.180;17.168;2023-04-03T18:07:27;4.90;;;3.17;;
10399;SDS011;10031;51.180;17.168;2023-04-03T18:09:53;5.63;;;3.20;;
10399;SDS011;10031;51.180;17.168;2023-04-03T18:12:30;5.50;;;2.87;;
10399;SDS011;10031;51.180;17.168;2023-04-03T18:14:58;4.23;;;2.97;;
10399;SDS011;10031;51.180;17.168;2023-04-03T18:17:28;5.17;;;3.00;;
10399;SDS011;10031;51.180;17.168;2023-04-03T18:19:54;6.23;;;3.37;;
10399;SDS011;10031;51.180;17.168;2023-04-03T18:22:21;5.80;;;3.53;;
10399;SDS011;10031;51.180;17.168;2023-04-03T18:24:50;3.63;;;3.00;;
10399;SDS011;10031;51.180;17.168;2023-04-03T18:27:18;5.23;;;3.07;;
10399;SDS011;10031;51.180;17.168;2023-04-03T18:29:46;4.93;;;3.10;;
10399;SDS011;10031;51.180;17.168;2023-04-03T18:32:15;6.50;;;2.80;;
10399;SDS011;10031;51.180;17.168;2023-04-03T18:34:42;8.70;;;3.70;;
10399;SDS011;10031;51.180;17.168;2023-04-03T18:37:09;4.93;;;3.03;;
10399;SDS011;10031;51.180;17.168;2023-04-03T18:39:36;6.50;;;3.23;;
10399;SDS011;10031;51.180;17.168;2023-04-03T18:42:09;4.87;;;3.20;;
10399;SDS011;10031;51.180;17.168;2023-04-03T18:44:36;4.03;;;3.07;;
10399;SDS011;10031;51.180;17.168;2023-04-03T18:47:03;4.47;;;3.33;;
10399;SDS011;10031;51.180;17.168;2023-04-03T18:49:30;6.27;;;3.80;;
10399;SDS011;10031;51.180;17.168;2023-04-03T18:51:58;6.87;;;3.70;;
10399;SDS011;10031;51.180;17.168;2023-04-03T18:54:24;5.40;;;3.47;;
10399;SDS011;10031;51.180;17.168;2023-04-03T18:56:50;9.17;;;3.47;;
10399;SDS011;10031;51.180;17.168;2023-04-03T18:59:16;6.73;;;3.87;;
10399;SDS011;10031;51.180;17.168;2023-04-03T19:01:42;6.33;;;3.87;;
10399;SDS011;10031;51.180;17.168;2023-04-03T19:04:08;13.37;;;4.40;;
10399;SDS011;10031;51.180;17.168;2023-04-03T19:06:34;6.20;;;4.33;;
10399;SDS011;10031;51.180;17.168;2023-04-03T19:09:03;6.57;;;4.27;;
10399;SDS011;10031;51.180;17.168;2023-04-03T19:11:30;7.07;;;4.07;;
10399;SDS011;10031;51.180;17.168;2023-04-03T19:16:58;6.30;;;3.90;;
10399;SDS011;10031;51.180;17.168;2023-04-03T19:25:44;6.93;;;3.80;;
10399;SDS011;10031;51.180;17.168;2023-04-03T19:31:32;8.57;;;4.63;;
10399;SDS011;10031;51.180;17.168;2023-04-03T19:47:08;7.53;;;4.40;;
10399;SDS011;10031;51.180;17.168;2023-04-03T19:49:39;8.57;;;4.03;;
10399;SDS011;10031;51.180;17.168;2023-04-03T19:52:17;5.13;;;3.30;;
10399;SDS011;10031;51.180;17.168;2023-04-03T19:54:43;6.13;;;3.63;;
10399;SDS011;10031;51.180;17.168;2023-04-03T19:57:09;7.77;;;4.37;;
10399;SDS011;10031;51.180;17.168;2023-04-03T19:59:35;10.53;;;4.10;;
10399;SDS011;10031;51.180;17.168;2023-04-03T20:02:01;4.77;;;2.93;;
10399;SDS011;10031;51.180;17.168;2023-04-03T20:04:28;4.53;;;3.00;;
10399;SDS011;10031;51.180;17.168;2023-04-03T20:06:54;5.57;;;3.40;;
10399;SDS011;10031;51.180;17.168;2023-04-03T20:09:21;2.60;;;1.37;;
10399;SDS011;10031;51.180;17.168;2023-04-03T20:11:48;5.63;;;3.43;;
10399;SDS011;10031;51.180;17.168;2023-04-03T20:14:15;5.47;;;3.00;;
10399;SDS011;10031;51.180;17.168;2023-04-03T20:16:43;5.27;;;3.30;;